createdAt,value
2019-04-14T00:00:43.270Z,9.43
2019-04-14T00:03:17.182Z,10.40
2019-04-14T00:05:47.452Z,9.73
2019-04-14T00:08:15.885Z,10.28
2019-04-14T00:10:44.327Z,8.85
2019-04-14T00:13:13.192Z,10.70
2019-04-14T00:15:45.155Z,8.48
2019-04-14T00:18:12.077Z,9.88
2019-04-14T00:20:40.544Z,10.60
2019-04-14T00:23:09.018Z,11.30
2019-04-14T00:25:37.459Z,10.45
2019-04-14T00:28:05.938Z,10.82
2019-04-14T00:30:34.392Z,11.78
2019-04-14T00:33:08.377Z,10.15
2019-04-14T00:35:54.007Z,10.23
2019-04-14T00:38:30.334Z,14.55
2019-04-14T00:41:09.448Z,12.37
2019-04-14T00:43:48.650Z,10.95
2019-04-14T00:46:21.796Z,11.20
2019-04-14T00:48:50.237Z,11.40
2019-04-14T00:51:19.829Z,11.30
2019-04-14T00:53:49.155Z,11.73
2019-04-14T00:56:17.682Z,11.40
2019-04-14T00:58:46.126Z,12.25
2019-04-14T01:01:15.465Z,11.12
2019-04-14T01:03:44.036Z,11.57
2019-04-14T01:06:12.504Z,10.78
2019-04-14T01:08:40.979Z,11.18
2019-04-14T01:11:09.624Z,11.65
2019-04-14T01:13:38.197Z,11.68
2019-04-14T01:16:12.008Z,11.85
2019-04-14T01:18:36.826Z,11.73
2019-04-14T01:21:06.622Z,11.45
2019-04-14T01:23:35.232Z,10.93
2019-04-14T01:26:05.030Z,12.65
2019-04-14T01:28:33.577Z,11.97
2019-04-14T01:31:03.245Z,11.95
2019-04-14T01:33:31.890Z,12.58
2019-04-14T01:36:01.613Z,11.78
2019-04-14T01:38:30.276Z,12.88
2019-04-14T01:40:59.836Z,13.08
2019-04-14T01:43:28.376Z,11.78
2019-04-14T01:46:05.161Z,12.85
2019-04-14T01:48:28.033Z,12.95
2019-04-14T01:51:01.248Z,11.45
2019-04-14T01:53:47.499Z,12.28
2019-04-14T01:56:20.994Z,13.58
2019-04-14T01:58:51.292Z,12.45
2019-04-14T02:01:21.727Z,12.95
2019-04-14T02:03:50.276Z,12.75
2019-04-14T02:06:20.069Z,12.55
2019-04-14T02:08:49.748Z,12.05
2019-04-14T02:11:18.528Z,11.03
2019-04-14T02:13:46.981Z,14.65
2019-04-14T02:16:28.250Z,12.60
2019-04-14T02:18:47.009Z,12.25
2019-04-14T02:21:17.187Z,13.48
2019-04-14T02:23:45.799Z,13.13
2019-04-14T02:26:15.385Z,13.30
2019-04-14T02:28:43.972Z,12.60
2019-04-14T02:31:32.982Z,12.88
2019-04-14T02:34:08.208Z,11.93
2019-04-14T02:36:38.320Z,10.53
2019-04-14T02:39:15.895Z,11.65
2019-04-14T02:41:52.939Z,11.97
2019-04-14T02:44:12.136Z,11.25
2019-04-14T02:46:45.834Z,11.25
2019-04-14T02:54:13.666Z,11.83
2019-04-14T03:02:01.058Z,13.03
2019-04-14T03:04:16.891Z,10.80
2019-04-14T03:06:44.563Z,13.88
2019-04-14T03:11:46.015Z,14.63
2019-04-14T03:17:14.142Z,16.82
2019-04-14T03:19:35.481Z,11.35
2019-04-14T03:24:53.859Z,11.20
2019-04-14T03:27:25.004Z,12.43
2019-04-14T03:29:49.828Z,12.20
2019-04-14T03:32:46.093Z,12.05
2019-04-14T03:37:45.218Z,12.65
2019-04-14T03:42:28.819Z,14.35
2019-04-14T03:44:49.453Z,10.63
2019-04-14T03:47:25.519Z,14.13
2019-04-14T03:50:00.708Z,12.88
2019-04-14T03:52:27.539Z,15.23
2019-04-14T03:54:44.164Z,14.10
2019-04-14T03:56:57.734Z,14.05
2019-04-14T03:59:26.319Z,13.53
2019-04-14T04:01:54.829Z,13.78
2019-04-14T04:04:23.272Z,15.55
2019-04-14T04:06:53.044Z,14.93
2019-04-14T04:09:23.613Z,13.95
2019-04-14T04:11:52.155Z,12.88
2019-04-14T04:14:20.616Z,14.30
2019-04-14T04:16:50.847Z,10.60
2019-04-14T04:19:38.274Z,14.13
2019-04-14T04:22:24.545Z,14.07
2019-04-14T04:24:57.040Z,13.03
2019-04-14T04:27:39.732Z,13.53
2019-04-14T04:30:18.892Z,13.48
2019-04-14T04:32:55.607Z,15.95
2019-04-14T04:35:32.557Z,12.03
2019-04-14T04:38:05.784Z,13.88
2019-04-14T04:40:35.311Z,15.00
2019-04-14T04:43:03.923Z,13.48
2019-04-14T04:45:32.356Z,14.00
2019-04-14T04:48:00.821Z,13.70
2019-04-14T04:50:30.344Z,14.35
2019-04-14T04:52:58.910Z,14.38
2019-04-14T04:55:28.543Z,14.95
2019-04-14T04:57:57.094Z,15.03
2019-04-14T05:00:26.638Z,15.30
2019-04-14T05:02:55.210Z,14.90
2019-04-14T05:05:58.137Z,14.83
2019-04-14T05:08:26.613Z,14.78
2019-04-14T05:11:12.955Z,15.68
2019-04-14T05:13:42.571Z,14.58
2019-04-14T05:16:11.035Z,15.13
2019-04-14T05:18:39.846Z,14.33
2019-04-14T05:21:08.451Z,15.03
2019-04-14T05:23:36.922Z,14.75
2019-04-14T05:26:05.492Z,15.30
2019-04-14T05:28:35.196Z,14.18
2019-04-14T05:31:03.843Z,14.75
2019-04-14T05:33:33.563Z,13.60
2019-04-14T05:36:02.186Z,15.08
2019-04-14T05:38:33.467Z,13.43
2019-04-14T05:41:00.787Z,12.93
2019-04-14T05:43:38.649Z,14.83
2019-04-14T05:45:59.415Z,14.03
2019-04-14T05:48:27.891Z,13.98
2019-04-14T05:50:57.412Z,17.10
2019-04-14T05:53:26.333Z,16.40
2019-04-14T05:55:54.838Z,14.55
2019-04-14T05:58:23.304Z,15.78
2019-04-14T06:00:51.862Z,12.47
2019-04-14T06:03:21.277Z,12.43
2019-04-14T06:05:49.968Z,13.43
2019-04-14T06:08:18.366Z,12.37
2019-04-14T06:10:46.826Z,12.23
2019-04-14T06:13:15.287Z,12.47
2019-04-14T06:15:43.735Z,13.55
2019-04-14T06:18:12.171Z,14.87
2019-04-14T06:20:40.621Z,15.72
2019-04-14T06:23:09.088Z,14.35
2019-04-14T06:25:37.543Z,15.18
2019-04-14T06:28:05.986Z,14.13
2019-04-14T06:30:47.978Z,11.43
2019-04-14T06:33:27.043Z,12.82
2019-04-14T06:36:03.131Z,10.32
2019-04-14T06:38:33.204Z,12.43
2019-04-14T06:41:03.309Z,14.40
2019-04-14T06:43:31.782Z,10.65
2019-04-14T06:46:00.320Z,11.43
2019-04-14T06:48:28.785Z,12.25
2019-04-14T06:50:57.296Z,12.50
2019-04-14T06:53:25.740Z,11.43
2019-04-14T06:55:55.124Z,11.57
2019-04-14T06:58:23.660Z,11.83
2019-04-14T07:00:52.134Z,11.20
2019-04-14T07:03:20.598Z,13.03
2019-04-14T07:05:49.058Z,11.30
2019-04-14T07:08:17.561Z,11.40
2019-04-14T07:10:46.002Z,11.00
2019-04-14T07:13:14.448Z,12.20
2019-04-14T07:15:42.885Z,11.55
2019-04-14T07:18:12.222Z,12.63
2019-04-14T07:20:40.777Z,14.00
2019-04-14T07:23:09.254Z,13.10
2019-04-14T07:25:37.698Z,11.10
2019-04-14T07:28:06.171Z,11.00
2019-04-14T07:30:36.250Z,12.80
2019-04-14T07:33:21.670Z,11.95
2019-04-14T07:36:07.017Z,13.90
2019-04-14T07:38:37.123Z,12.75
2019-04-14T07:41:13.261Z,13.15
2019-04-14T07:43:46.440Z,12.37
2019-04-14T07:46:25.806Z,13.43
2019-04-14T07:48:58.547Z,11.97
2019-04-14T07:51:40.902Z,12.50
2019-04-14T07:54:13.697Z,13.58
2019-04-14T07:56:43.805Z,15.00
2019-04-14T07:59:13.936Z,13.43
2019-04-14T08:01:59.386Z,13.65
2019-04-14T08:04:29.524Z,13.68
2019-04-14T08:06:57.959Z,14.93
2019-04-14T08:09:26.467Z,14.23
2019-04-14T08:11:54.932Z,14.95
2019-04-14T08:14:23.370Z,13.22
2019-04-14T08:16:51.824Z,14.43
2019-04-14T08:19:20.302Z,14.68
2019-04-14T08:21:48.731Z,13.03
2019-04-14T08:24:17.181Z,13.78
2019-04-14T08:26:45.646Z,14.23
2019-04-14T08:29:14.075Z,12.23
2019-04-14T08:31:42.581Z,15.43
2019-04-14T08:34:11.023Z,15.25
2019-04-14T08:36:39.502Z,15.35
2019-04-14T08:39:07.988Z,15.40
2019-04-14T08:41:44.024Z,17.25
2019-04-14T08:44:14.193Z,15.78
2019-04-14T08:46:44.283Z,15.98
2019-04-14T08:49:17.354Z,16.12
2019-04-14T08:51:47.421Z,14.78
2019-04-14T08:54:17.507Z,15.60
2019-04-14T08:56:53.519Z,13.90
2019-04-14T08:59:26.306Z,15.98
2019-04-14T09:02:14.719Z,15.80
2019-04-14T09:04:44.846Z,15.32
2019-04-14T09:07:21.026Z,14.53
2019-04-14T09:09:53.833Z,13.78
2019-04-14T09:12:26.899Z,15.48
2019-04-14T09:14:57.157Z,13.83
2019-04-14T09:17:26.855Z,14.58
2019-04-14T09:19:55.331Z,13.98
2019-04-14T09:22:23.815Z,14.53
2019-04-14T09:24:52.251Z,14.00
2019-04-14T09:27:20.705Z,14.05
2019-04-14T09:29:52.029Z,14.75
2019-04-14T09:32:19.600Z,14.75
2019-04-14T09:34:48.130Z,15.10
2019-04-14T09:37:16.654Z,13.58
2019-04-14T09:39:45.126Z,15.13
2019-04-14T09:42:13.563Z,14.30
2019-04-14T09:44:42.036Z,15.23
2019-04-14T09:47:10.468Z,12.82
2019-04-14T09:49:39.870Z,13.38
2019-04-14T09:52:08.330Z,12.95
2019-04-14T09:54:36.787Z,13.25
2019-04-14T09:57:05.491Z,13.45
2019-04-14T09:59:35.558Z,11.65
2019-04-14T10:02:04.010Z,14.95
2019-04-14T10:04:32.464Z,14.18
2019-04-14T10:07:00.935Z,13.68
2019-04-14T10:09:29.390Z,16.27
2019-04-14T10:11:57.845Z,14.53
2019-04-14T10:14:27.795Z,13.72
2019-04-14T10:16:56.272Z,12.43
2019-04-14T10:19:24.756Z,14.47
2019-04-14T10:21:53.204Z,13.28
2019-04-14T10:24:21.652Z,15.43
2019-04-14T10:26:50.171Z,14.47
2019-04-14T10:29:18.613Z,13.50
2019-04-14T10:31:47.094Z,15.18
2019-04-14T10:34:15.545Z,15.80
2019-04-14T10:36:44.022Z,14.25
2019-04-14T10:39:12.452Z,15.23
2019-04-14T10:41:40.961Z,14.18
2019-04-14T10:44:09.404Z,15.50
2019-04-14T10:46:39.258Z,14.30
2019-04-14T10:49:07.727Z,13.00
2019-04-14T10:51:36.256Z,14.30
2019-04-14T10:54:04.881Z,13.88
2019-04-14T10:56:33.322Z,14.30
2019-04-14T10:59:01.977Z,15.10
2019-04-14T11:01:30.511Z,13.38
2019-04-14T11:03:58.983Z,14.20
2019-04-14T11:06:29.089Z,13.15
2019-04-14T11:08:57.567Z,14.43
2019-04-14T11:11:26.021Z,14.63
2019-04-14T11:13:54.453Z,14.18
2019-04-14T11:16:22.957Z,13.13
2019-04-14T11:18:51.410Z,13.30
2019-04-14T11:21:19.862Z,13.55
2019-04-14T11:23:48.344Z,12.78
2019-04-14T11:26:16.810Z,11.45
2019-04-14T11:28:45.286Z,13.13
2019-04-14T11:31:15.405Z,13.28
2019-04-14T11:34:00.545Z,12.90
2019-04-14T11:36:30.798Z,12.78
2019-04-14T11:39:00.883Z,13.05
2019-04-14T11:41:29.374Z,12.60
2019-04-14T11:43:57.788Z,10.60
2019-04-14T11:46:26.287Z,13.60
2019-04-14T11:48:54.765Z,13.65
2019-04-14T11:51:23.207Z,13.10
2019-04-14T11:53:51.677Z,12.95
2019-04-14T11:56:20.141Z,12.78
2019-04-14T11:58:48.608Z,12.33
2019-04-14T12:01:30.832Z,13.85
2019-04-14T12:04:17.107Z,12.28
2019-04-14T12:06:56.055Z,12.45
2019-04-14T12:09:28.844Z,11.47
2019-04-14T12:11:57.399Z,11.33
2019-04-14T12:14:25.856Z,12.00
2019-04-14T12:16:54.901Z,8.53
2019-04-14T12:19:23.352Z,11.30
2019-04-14T12:21:51.888Z,11.20
2019-04-14T12:24:20.381Z,11.83
2019-04-14T12:26:49.026Z,11.77
2019-04-14T12:29:17.481Z,11.80
2019-04-14T12:31:46.569Z,11.17
2019-04-14T12:34:15.035Z,10.53
2019-04-14T12:36:43.494Z,11.60
2019-04-14T12:39:23.439Z,10.43
2019-04-14T12:42:05.722Z,11.97
2019-04-14T12:44:35.991Z,10.23
2019-04-14T12:47:06.505Z,11.63
2019-04-14T12:49:54.776Z,12.67
2019-04-14T12:52:24.908Z,11.13
2019-04-14T12:54:53.371Z,12.37
2019-04-14T12:57:25.867Z,11.33
2019-04-14T12:59:54.489Z,11.93
2019-04-14T13:02:24.636Z,11.20
2019-04-14T13:04:55.337Z,13.60
2019-04-14T13:07:23.275Z,11.37
2019-04-14T13:09:51.729Z,11.77
2019-04-14T13:12:20.181Z,11.83
2019-04-14T13:14:48.659Z,12.07
2019-04-14T13:17:17.119Z,9.93
2019-04-14T13:19:45.595Z,10.47
2019-04-14T13:22:14.062Z,10.00
2019-04-14T13:24:42.539Z,10.53
2019-04-14T13:27:10.985Z,9.97
2019-04-14T13:29:40.978Z,10.47
2019-04-14T13:32:09.475Z,9.40
2019-04-14T13:34:37.944Z,11.47
2019-04-14T13:37:06.380Z,9.27
2019-04-14T13:39:34.841Z,9.50
2019-04-14T13:42:03.421Z,9.37
2019-04-14T13:44:31.866Z,9.83
2019-04-14T13:47:00.317Z,9.47
2019-04-14T13:49:28.770Z,10.90
2019-04-14T13:51:57.207Z,9.37
2019-04-14T13:54:25.675Z,9.63
2019-04-14T13:56:54.115Z,9.43
2019-04-14T13:59:22.573Z,9.53
2019-04-14T14:01:51.048Z,9.03
2019-04-14T14:04:19.504Z,8.37
2019-04-14T14:06:47.996Z,7.87
2019-04-14T14:09:16.431Z,8.43
2019-04-14T14:11:55.259Z,7.17
2019-04-14T14:14:25.370Z,7.50
2019-04-14T14:16:55.470Z,8.23
2019-04-14T14:19:28.275Z,7.20
2019-04-14T14:22:13.380Z,7.40
2019-04-14T14:25:02.064Z,7.60
2019-04-14T14:27:30.511Z,7.50
2019-04-14T14:29:58.950Z,8.90
2019-04-14T14:32:29.062Z,7.87
2019-04-14T14:34:57.521Z,7.87
2019-04-14T14:37:25.978Z,8.70
2019-04-14T14:39:54.451Z,8.40
2019-04-14T14:42:22.899Z,8.40
2019-04-14T14:44:58.751Z,8.17
2019-04-14T14:47:28.845Z,8.37
2019-04-14T14:50:04.891Z,9.50
2019-04-14T14:52:35.594Z,10.57
2019-04-14T14:55:04.804Z,9.10
2019-04-14T14:57:33.273Z,9.87
2019-04-14T15:00:01.758Z,7.87
2019-04-14T15:02:30.219Z,9.07
2019-04-14T15:04:58.670Z,8.93
2019-04-14T15:07:27.125Z,10.13
2019-04-14T15:09:55.603Z,9.10
2019-04-14T15:12:24.074Z,9.30
2019-04-14T15:14:52.540Z,9.03
2019-04-14T15:17:21.075Z,8.80
2019-04-14T15:19:49.536Z,7.90
2019-04-14T15:22:17.986Z,8.83
2019-04-14T15:24:46.435Z,7.63
2019-04-14T15:27:14.887Z,8.67
2019-04-14T15:29:43.335Z,8.23
2019-04-14T15:32:12.557Z,8.80
2019-04-14T15:34:41.021Z,8.47
2019-04-14T15:37:09.504Z,8.33
2019-04-14T15:39:37.955Z,8.70
2019-04-14T15:42:06.585Z,6.97
2019-04-14T15:44:35.067Z,8.53
2019-04-14T15:47:03.540Z,7.70
2019-04-14T15:49:32.511Z,7.83
2019-04-14T15:52:00.971Z,7.97
2019-04-14T15:54:29.427Z,7.70
2019-04-14T15:56:59.922Z,7.80
2019-04-14T15:59:46.097Z,8.17
2019-04-14T16:02:22.199Z,8.37
2019-04-14T16:04:52.321Z,7.97
2019-04-14T16:07:28.081Z,8.10
2019-04-14T16:10:00.951Z,7.10
2019-04-14T16:12:47.407Z,7.37
2019-04-14T16:15:20.702Z,8.43
2019-04-14T16:18:06.783Z,8.97
2019-04-14T16:20:36.911Z,8.13
2019-04-14T16:23:05.367Z,10.57
2019-04-14T16:25:41.212Z,9.20
2019-04-14T16:28:11.359Z,9.30
2019-04-14T16:30:57.517Z,9.30
2019-04-14T16:33:30.602Z,8.73
2019-04-14T16:35:59.711Z,7.97
2019-04-14T16:38:28.168Z,9.80
2019-04-14T16:40:56.628Z,8.53
2019-04-14T16:43:26.360Z,8.83
2019-04-14T16:45:55.120Z,8.43
2019-04-14T16:48:23.580Z,8.67
2019-04-14T16:50:52.044Z,8.67
2019-04-14T16:53:22.247Z,9.33
2019-04-14T16:56:01.167Z,8.73
2019-04-14T16:58:31.278Z,8.30
2019-04-14T17:01:01.444Z,8.67
2019-04-14T17:03:29.880Z,9.10
2019-04-14T17:05:58.352Z,8.80
2019-04-14T17:08:26.829Z,8.43
2019-04-14T17:10:55.742Z,8.03
2019-04-14T17:13:25.830Z,8.47
2019-04-14T17:15:58.918Z,8.50
2019-04-14T17:18:37.510Z,8.17
2019-04-14T17:21:19.905Z,8.20
2019-04-14T17:23:50.005Z,8.00
2019-04-14T17:26:31.765Z,9.57
2019-04-14T17:29:01.865Z,8.43
2019-04-14T17:31:37.962Z,8.00
2019-04-14T17:34:08.064Z,8.10
2019-04-14T17:36:54.692Z,8.33
2019-04-14T17:39:24.836Z,8.20
2019-04-14T17:42:09.946Z,7.80
2019-04-14T17:44:40.071Z,7.30
2019-04-14T17:47:10.167Z,8.00
2019-04-14T17:49:45.795Z,8.73
2019-04-14T17:52:27.805Z,7.97
2019-04-14T17:55:13.374Z,7.43
2019-04-14T17:57:43.486Z,7.27
2019-04-14T18:00:19.507Z,8.70
2019-04-14T18:03:01.640Z,7.57
2019-04-14T18:05:34.637Z,8.77
2019-04-14T18:08:04.711Z,8.57
2019-04-14T18:10:34.859Z,8.30
2019-04-14T18:13:20.003Z,7.90
2019-04-14T18:15:59.157Z,6.90
2019-04-14T18:18:32.320Z,8.80
2019-04-14T18:21:02.499Z,7.70
2019-04-14T18:23:30.962Z,7.73
2019-04-14T18:25:59.411Z,7.47
2019-04-14T18:28:45.678Z,7.67
2019-04-14T18:31:15.768Z,7.17
2019-04-14T18:34:02.321Z,7.07
2019-04-14T18:36:32.401Z,6.87
2019-04-14T18:39:05.753Z,7.57
2019-04-14T18:41:50.631Z,6.83
2019-04-14T18:44:20.745Z,6.90
2019-04-14T18:46:50.887Z,7.30
2019-04-14T18:49:20.949Z,6.40
2019-04-14T18:51:51.038Z,7.67
2019-04-14T18:54:30.111Z,7.10
2019-04-14T18:57:03.126Z,6.60
2019-04-14T18:59:41.955Z,6.50
2019-04-14T19:02:11.493Z,7.23
2019-04-14T19:04:39.968Z,6.40
2019-04-14T19:07:08.413Z,5.90
2019-04-14T19:09:36.850Z,6.83
2019-04-14T19:12:22.093Z,6.27
2019-04-14T19:14:54.968Z,5.90
2019-04-14T19:17:33.745Z,5.30
2019-04-14T19:20:02.687Z,6.43
2019-04-14T19:22:32.584Z,6.63
2019-04-14T19:25:08.344Z,5.67
2019-04-14T19:27:32.775Z,5.80
2019-04-14T19:30:01.226Z,5.47
2019-04-14T19:32:29.664Z,5.83
2019-04-14T19:34:58.150Z,6.00
2019-04-14T19:37:26.824Z,5.10
2019-04-14T19:39:55.516Z,5.53
2019-04-14T19:42:24.064Z,5.07
2019-04-14T19:44:52.578Z,5.33
2019-04-14T19:47:21.013Z,5.67
2019-04-14T19:49:49.471Z,4.80
2019-04-14T19:52:17.929Z,5.23
2019-04-14T19:54:46.373Z,6.03
2019-04-14T19:57:14.853Z,5.83
2019-04-14T19:59:43.313Z,5.20
2019-04-14T20:02:12.053Z,4.70
2019-04-14T20:04:40.526Z,4.90
2019-04-14T20:07:10.538Z,6.50
2019-04-14T20:09:39.003Z,5.93
2019-04-14T20:12:08.262Z,4.10
2019-04-14T20:14:36.740Z,4.67
2019-04-14T20:17:07.249Z,4.73
2019-04-14T20:19:42.982Z,4.23
2019-04-14T20:22:21.844Z,4.07
2019-04-14T20:25:04.142Z,4.80
2019-04-14T20:27:34.212Z,5.37
2019-04-14T20:30:22.520Z,4.73
2019-04-14T20:32:50.993Z,4.23
2019-04-14T20:35:20.581Z,4.47
2019-04-14T20:37:49.068Z,4.53
2019-04-14T20:40:17.527Z,4.33
2019-04-14T20:42:47.446Z,4.20
2019-04-14T20:45:17.558Z,4.67
2019-04-14T20:47:47.516Z,4.43
2019-04-14T20:50:16.384Z,4.47
2019-04-14T20:52:47.728Z,5.30
2019-04-14T20:55:16.186Z,4.77
2019-04-14T20:57:44.628Z,4.33
2019-04-14T21:00:13.533Z,4.00
2019-04-14T21:02:46.619Z,4.60
2019-04-14T21:05:32.864Z,4.93
2019-04-14T21:08:18.964Z,4.83
2019-04-14T21:10:58.138Z,4.73
2019-04-14T21:13:28.275Z,4.70
2019-04-14T21:16:12.205Z,4.50
2019-04-14T21:18:32.924Z,5.07
2019-04-14T21:21:08.621Z,4.53
2019-04-14T21:23:50.436Z,4.50
2019-04-14T21:26:20.506Z,4.37
2019-04-14T21:28:59.825Z,4.30
2019-04-14T21:31:29.915Z,3.97
2019-04-14T21:34:16.163Z,4.93
2019-04-14T21:36:49.000Z,4.73
2019-04-14T21:39:34.011Z,4.15
2019-04-14T21:42:02.467Z,4.83
2019-04-14T21:44:30.911Z,4.87
2019-04-14T21:46:59.371Z,4.97
2019-04-14T21:49:27.843Z,4.80
2019-04-14T21:52:00.391Z,4.90
2019-04-14T21:54:28.838Z,4.90
2019-04-14T21:56:58.917Z,5.30
2019-04-14T21:59:31.702Z,5.42
2019-04-14T22:02:18.216Z,4.47
2019-04-14T22:05:04.421Z,4.95
2019-04-14T22:07:40.513Z,5.60
2019-04-14T22:10:10.971Z,5.60
2019-04-14T22:12:39.436Z,5.70
2019-04-14T22:15:08.537Z,4.72
2019-04-14T22:17:37.051Z,4.95
2019-04-14T22:20:06.708Z,5.45
2019-04-14T22:22:35.175Z,5.08
2019-04-14T22:25:04.501Z,5.70
2019-04-14T22:27:32.948Z,4.50
2019-04-14T22:30:01.447Z,5.22
2019-04-14T22:32:29.846Z,4.83
2019-04-14T22:34:58.316Z,5.30
2019-04-14T22:37:26.775Z,4.90
2019-04-14T22:39:55.236Z,5.70
2019-04-14T22:42:25.239Z,5.10
2019-04-14T22:44:53.704Z,5.17
2019-04-14T22:47:22.155Z,5.60
2019-04-14T22:49:50.623Z,5.08
2019-04-14T22:52:19.058Z,6.28
2019-04-14T22:54:47.514Z,5.10
2019-04-14T22:57:15.970Z,4.87
2019-04-14T22:59:44.513Z,5.60
2019-04-14T23:02:17.239Z,4.75
2019-04-14T23:04:50.059Z,4.83
2019-04-14T23:07:26.406Z,4.97
2019-04-14T23:09:59.117Z,4.95
2019-04-14T23:12:35.069Z,6.10
2019-04-14T23:15:23.229Z,5.40
2019-04-14T23:17:53.296Z,6.58
2019-04-14T23:20:23.471Z,6.60
2019-04-14T23:23:02.712Z,6.50
2019-04-14T23:25:31.180Z,5.75
2019-04-14T23:27:59.647Z,5.03
2019-04-14T23:30:28.154Z,5.47
2019-04-14T23:32:56.596Z,5.83
2019-04-14T23:35:25.098Z,5.85
2019-04-14T23:37:53.516Z,5.53
2019-04-14T23:40:21.955Z,5.65
2019-04-14T23:42:50.396Z,4.95
2019-04-14T23:45:18.852Z,5.35
2019-04-14T23:47:47.338Z,6.03
2019-04-14T23:50:15.833Z,5.47
2019-04-14T23:52:44.284Z,5.67
2019-04-14T23:55:13.400Z,5.30
2019-04-14T23:57:41.876Z,6.45
